createdAt,value
2019-06-27T00:02:27.656Z,14.40
2019-06-27T00:04:58.497Z,14.40
2019-06-27T00:07:28.871Z,14.41
2019-06-27T00:09:58.919Z,14.42
2019-06-27T00:12:29.003Z,14.42
2019-06-27T00:15:00.449Z,14.42
2019-06-27T00:17:30.943Z,14.35
2019-06-27T00:20:01.151Z,14.35
2019-06-27T00:22:32.312Z,14.32
2019-06-27T00:25:02.515Z,14.39
2019-06-27T00:27:33.864Z,14.39
2019-06-27T00:30:04.292Z,14.42
2019-06-27T00:32:34.359Z,14.42
2019-06-27T00:35:04.993Z,14.41
2019-06-27T00:37:35.717Z,14.44
2019-06-27T00:40:06.870Z,14.49
2019-06-27T00:42:37.142Z,14.51
2019-06-27T00:45:10.072Z,14.51
2019-06-27T00:47:41.264Z,14.57
2019-06-27T00:50:11.716Z,14.54
2019-06-27T00:52:42.736Z,14.46
2019-06-27T00:55:13.353Z,14.41
2019-06-27T00:57:43.837Z,14.41
2019-06-27T01:00:13.961Z,14.35
2019-06-27T01:02:44.235Z,14.34
2019-06-27T01:05:14.346Z,14.36
2019-06-27T01:07:44.431Z,14.29
2019-06-27T01:10:15.541Z,14.29
2019-06-27T01:12:47.607Z,14.27
2019-06-27T01:15:18.034Z,14.25
2019-06-27T01:17:48.227Z,14.25
2019-06-27T01:20:18.397Z,14.22
2019-06-27T01:22:48.472Z,14.18
2019-06-27T01:25:18.595Z,14.18
2019-06-27T01:27:48.681Z,14.22
2019-06-27T01:30:19.721Z,14.23
2019-06-27T01:32:49.852Z,14.22
2019-06-27T01:35:19.974Z,14.22
2019-06-27T01:37:51.218Z,14.20
2019-06-27T01:40:21.618Z,14.22
2019-06-27T01:42:51.700Z,14.29
2019-06-27T01:45:30.474Z,14.29
2019-06-27T01:48:00.519Z,14.34
2019-06-27T01:50:31.642Z,14.31
2019-06-27T01:53:01.777Z,14.31
2019-06-27T01:55:31.833Z,14.25
2019-06-27T01:58:02.023Z,14.23
2019-06-27T02:00:32.707Z,14.23
2019-06-27T02:03:03.102Z,14.27
2019-06-27T02:05:34.670Z,14.24
2019-06-27T02:08:04.953Z,14.24
2019-06-27T02:10:35.050Z,14.27
2019-06-27T02:13:05.359Z,14.27
2019-06-27T02:15:35.417Z,14.30
2019-06-27T02:18:05.856Z,14.30
2019-06-27T02:20:36.780Z,14.43
2019-06-27T02:23:06.891Z,14.43
2019-06-27T02:25:38.034Z,14.39
2019-06-27T02:28:08.124Z,14.45
2019-06-27T02:30:42.964Z,14.45
2019-06-27T02:33:13.224Z,14.50
2019-06-27T02:35:44.121Z,14.46
2019-06-27T02:38:14.404Z,14.46
2019-06-27T02:40:45.035Z,14.40
2019-06-27T02:43:16.161Z,14.42
2019-06-27T02:45:46.275Z,14.40
2019-06-27T02:48:17.170Z,14.40
2019-06-27T02:50:51.483Z,14.35
2019-06-27T02:53:21.556Z,14.50
2019-06-27T02:55:51.573Z,14.46
2019-06-27T02:58:30.736Z,14.47
2019-06-27T03:00:53.472Z,14.47
2019-06-27T03:03:23.566Z,14.50
2019-06-27T03:05:53.624Z,14.50
2019-06-27T03:08:23.722Z,14.46
2019-06-27T03:10:54.184Z,14.43
2019-06-27T03:13:25.151Z,14.44
2019-06-27T03:15:55.238Z,14.42
2019-06-27T03:18:25.448Z,14.42
2019-06-27T03:20:55.542Z,14.41
2019-06-27T03:23:26.377Z,14.41
2019-06-27T03:25:56.464Z,14.39
2019-06-27T03:28:45.005Z,14.44
2019-06-27T03:30:59.302Z,14.39
2019-06-27T03:33:30.063Z,14.42
2019-06-27T03:36:00.168Z,14.53
2019-06-27T03:38:30.196Z,14.55
2019-06-27T03:41:00.304Z,14.57
2019-06-27T03:43:30.484Z,14.57
2019-06-27T03:46:00.922Z,14.57
2019-06-27T03:48:31.408Z,14.57
2019-06-27T03:51:01.599Z,14.71
2019-06-27T03:53:31.729Z,14.76
2019-06-27T03:56:02.928Z,14.79
2019-06-27T03:58:33.516Z,14.82
2019-06-27T04:01:03.674Z,14.83
2019-06-27T04:03:34.203Z,14.85
2019-06-27T04:06:04.418Z,14.81
2019-06-27T04:08:34.619Z,14.85
2019-06-27T04:11:05.999Z,14.79
2019-06-27T04:13:36.948Z,14.75
2019-06-27T04:16:07.461Z,14.64
2019-06-27T04:18:37.585Z,14.64
2019-06-27T04:21:08.320Z,14.69
2019-06-27T04:23:38.899Z,14.70
2019-06-27T04:26:08.970Z,14.73
2019-06-27T04:28:39.159Z,14.67
2019-06-27T04:31:09.939Z,14.65
2019-06-27T04:33:40.241Z,14.59
2019-06-27T04:36:11.153Z,14.66
2019-06-27T04:38:41.265Z,14.70
2019-06-27T04:41:11.382Z,14.74
2019-06-27T04:43:42.360Z,14.80
2019-06-27T04:46:12.443Z,14.84
2019-06-27T04:48:42.829Z,14.87
2019-06-27T04:51:14.105Z,14.94
2019-06-27T04:53:44.196Z,15.03
2019-06-27T04:56:14.375Z,15.09
2019-06-27T04:58:44.493Z,15.20
2019-06-27T05:01:15.153Z,15.22
2019-06-27T05:03:45.351Z,15.18
2019-06-27T05:06:15.419Z,15.19
2019-06-27T05:08:46.409Z,15.25
2019-06-27T05:11:16.960Z,15.26
2019-06-27T05:13:47.361Z,15.31
2019-06-27T05:16:18.550Z,15.28
2019-06-27T05:18:49.131Z,15.29
2019-06-27T05:21:19.591Z,15.28
2019-06-27T05:23:49.827Z,15.37
2019-06-27T05:26:20.367Z,15.54
2019-06-27T05:28:50.418Z,15.69
2019-06-27T05:31:20.501Z,15.81
2019-06-27T05:33:50.650Z,15.86
2019-06-27T05:36:21.856Z,15.93
2019-06-27T05:38:51.891Z,15.86
2019-06-27T05:41:22.421Z,15.67
2019-06-27T05:43:54.659Z,15.58
2019-06-27T05:46:25.859Z,15.58
2019-06-27T05:48:55.934Z,15.58
2019-06-27T05:51:26.156Z,15.60
2019-06-27T05:53:56.259Z,15.67
2019-06-27T05:56:30.409Z,15.68
2019-06-27T05:59:00.614Z,15.64
2019-06-27T06:01:31.110Z,15.69
2019-06-27T06:04:01.686Z,15.78
2019-06-27T06:06:31.863Z,15.84
2019-06-27T06:09:02.367Z,15.89
2019-06-27T06:11:32.740Z,16.01
2019-06-27T06:14:03.451Z,16.06
2019-06-27T06:16:34.469Z,16.16
2019-06-27T06:19:10.787Z,16.22
2019-06-27T06:21:42.001Z,16.36
2019-06-27T06:24:12.145Z,16.32
2019-06-27T06:26:42.671Z,16.28
2019-06-27T06:29:12.748Z,16.27
2019-06-27T06:31:43.303Z,16.35
2019-06-27T06:34:13.518Z,16.41
2019-06-27T06:36:43.736Z,16.54
2019-06-27T06:39:14.065Z,16.55
2019-06-27T06:41:44.487Z,16.59
2019-06-27T06:44:15.010Z,16.78
2019-06-27T06:46:45.322Z,17.13
2019-06-27T06:49:15.867Z,17.38
2019-06-27T06:51:46.129Z,17.26
2019-06-27T06:54:16.267Z,17.20
2019-06-27T06:56:47.146Z,17.19
2019-06-27T06:59:17.728Z,17.22
2019-06-27T07:01:47.950Z,17.10
2019-06-27T07:04:18.886Z,17.01
2019-06-27T07:06:50.027Z,17.04
2019-06-27T07:09:20.512Z,17.04
2019-06-27T07:11:50.617Z,17.07
2019-06-27T07:14:20.801Z,17.14
2019-06-27T07:16:52.048Z,17.14
2019-06-27T07:19:24.035Z,17.33
2019-06-27T07:21:55.252Z,17.60
2019-06-27T07:24:25.367Z,17.62
2019-06-27T07:26:55.427Z,17.63
2019-06-27T07:29:26.984Z,17.61
2019-06-27T07:31:57.301Z,17.67
2019-06-27T07:34:27.984Z,17.78
2019-06-27T07:36:58.212Z,17.85
2019-06-27T07:39:29.100Z,17.98
2019-06-27T07:41:59.728Z,17.97
2019-06-27T07:44:34.719Z,17.91
2019-06-27T07:47:07.820Z,17.81
2019-06-27T07:49:38.035Z,17.75
2019-06-27T07:52:08.831Z,17.81
2019-06-27T07:54:39.069Z,17.90
2019-06-27T07:57:09.100Z,18.10
2019-06-27T07:59:39.578Z,18.15
2019-06-27T08:02:11.807Z,18.23
2019-06-27T08:04:41.918Z,18.13
2019-06-27T08:07:12.339Z,18.07
2019-06-27T08:09:42.440Z,18.08
2019-06-27T08:12:13.039Z,18.15
2019-06-27T08:14:43.467Z,18.19
2019-06-27T08:17:14.165Z,18.30
2019-06-27T08:19:45.139Z,18.39
2019-06-27T08:22:15.273Z,18.34
2019-06-27T08:24:45.379Z,18.26
2019-06-27T08:27:16.539Z,18.27
2019-06-27T08:29:46.638Z,18.03
2019-06-27T08:32:16.772Z,17.99
2019-06-27T08:34:47.486Z,18.01
2019-06-27T08:37:17.575Z,18.24
2019-06-27T08:39:48.133Z,18.39
2019-06-27T08:42:18.356Z,18.40
2019-06-27T08:44:48.549Z,18.27
2019-06-27T08:47:19.413Z,18.09
2019-06-27T08:49:49.558Z,18.07
2019-06-27T08:52:19.670Z,18.15
2019-06-27T08:54:49.792Z,18.28
2019-06-27T08:57:19.990Z,18.37
2019-06-27T08:59:50.073Z,18.51
2019-06-27T09:02:20.414Z,18.75
2019-06-27T09:04:51.089Z,18.88
2019-06-27T09:07:21.183Z,18.99
2019-06-27T09:09:51.586Z,18.99
2019-06-27T09:12:22.077Z,18.93
2019-06-27T09:14:52.156Z,18.97
2019-06-27T09:17:22.288Z,18.91
2019-06-27T09:19:52.875Z,19.11
2019-06-27T09:22:22.961Z,19.16
2019-06-27T09:24:53.478Z,18.87
2019-06-27T09:27:25.557Z,18.74
2019-06-27T09:29:55.957Z,18.66
2019-06-27T09:32:26.526Z,18.50
2019-06-27T09:34:57.418Z,18.69
2019-06-27T09:37:27.649Z,18.86
2019-06-27T09:39:57.779Z,18.99
2019-06-27T09:42:27.798Z,18.89
2019-06-27T09:44:57.983Z,19.00
2019-06-27T09:47:29.002Z,18.93
2019-06-27T09:49:59.209Z,18.90
2019-06-27T09:52:30.187Z,18.85
2019-06-27T09:55:01.402Z,19.12
2019-06-27T09:57:31.975Z,19.36
2019-06-27T10:00:02.100Z,19.23
2019-06-27T10:02:41.902Z,19.13
2019-06-27T10:05:05.801Z,19.13
2019-06-27T10:07:36.137Z,19.40
2019-06-27T10:10:06.537Z,19.48
2019-06-27T10:12:42.465Z,19.33
2019-06-27T10:15:09.611Z,19.35
2019-06-27T10:17:39.820Z,19.60
2019-06-27T10:20:11.646Z,19.90
2019-06-27T10:22:42.109Z,20.48
2019-06-27T10:25:12.556Z,20.88
2019-06-27T10:27:43.494Z,20.85
2019-06-27T10:30:16.586Z,20.61
2019-06-27T10:32:58.265Z,20.16
2019-06-27T10:35:18.903Z,20.60
2019-06-27T10:37:49.430Z,20.44
2019-06-27T10:40:20.295Z,20.51
2019-06-27T10:42:51.460Z,20.82
2019-06-27T10:45:22.742Z,20.72
2019-06-27T10:47:54.201Z,20.57
2019-06-27T10:50:24.796Z,20.91
2019-06-27T10:52:54.824Z,20.79
2019-06-27T10:55:24.902Z,20.96
2019-06-27T10:57:55.561Z,21.04
2019-06-27T11:00:25.676Z,21.22
2019-06-27T11:02:55.744Z,21.15
2019-06-27T11:05:26.971Z,21.04
2019-06-27T11:07:57.135Z,20.82
2019-06-27T11:10:27.948Z,21.00
2019-06-27T11:12:59.642Z,21.62
2019-06-27T11:15:29.956Z,21.48
2019-06-27T11:18:04.241Z,21.23
2019-06-27T11:20:34.779Z,21.21
2019-06-27T11:23:05.908Z,21.24
2019-06-27T11:25:37.240Z,21.35
2019-06-27T11:28:10.083Z,21.14
2019-06-27T11:30:39.747Z,20.80
2019-06-27T11:33:11.059Z,20.55
2019-06-27T11:35:42.108Z,20.59
2019-06-27T11:38:12.198Z,20.28
2019-06-27T11:40:42.303Z,20.12
2019-06-27T11:43:12.465Z,20.11
2019-06-27T11:45:43.334Z,20.08
2019-06-27T11:48:13.458Z,20.24
2019-06-27T11:50:43.961Z,20.41
2019-06-27T11:53:14.086Z,20.48
2019-06-27T11:55:45.020Z,20.60
2019-06-27T11:58:15.138Z,20.50
2019-06-27T12:00:45.234Z,20.19
2019-06-27T12:03:15.683Z,20.32
2019-06-27T12:05:45.861Z,20.40
2019-06-27T12:08:38.961Z,20.39
2019-06-27T12:11:09.159Z,20.28
2019-06-27T12:13:39.674Z,20.02
2019-06-27T12:16:10.622Z,19.86
2019-06-27T12:18:41.410Z,19.73
2019-06-27T12:21:12.220Z,19.82
2019-06-27T12:24:01.673Z,19.79
2019-06-27T12:26:32.090Z,19.98
2019-06-27T12:29:02.549Z,20.15
2019-06-27T12:31:33.797Z,20.24
2019-06-27T12:34:07.292Z,20.25
2019-06-27T12:36:35.720Z,20.19
2019-06-27T12:39:06.793Z,20.14
2019-06-27T12:41:37.201Z,20.25
2019-06-27T12:44:07.262Z,20.39
2019-06-27T12:46:37.478Z,20.40
2019-06-27T12:49:09.681Z,20.39
2019-06-27T12:51:44.821Z,20.58
2019-06-27T12:54:15.577Z,20.73
2019-06-27T12:56:45.579Z,20.83
2019-06-27T12:59:16.726Z,20.81
2019-06-27T13:01:47.168Z,20.59
2019-06-27T13:04:23.553Z,20.67
2019-06-27T13:06:49.595Z,20.86
2019-06-27T13:09:19.638Z,21.21
2019-06-27T13:11:51.093Z,21.06
2019-06-27T13:14:21.289Z,21.23
2019-06-27T13:16:51.375Z,21.33
2019-06-27T13:19:27.467Z,21.59
2019-06-27T13:21:57.513Z,22.02
2019-06-27T13:24:27.747Z,22.52
2019-06-27T13:26:58.060Z,23.30
2019-06-27T13:29:28.165Z,22.61
2019-06-27T13:32:01.011Z,22.53
2019-06-27T13:34:40.403Z,22.19
2019-06-27T13:37:03.177Z,22.23
2019-06-27T13:39:33.367Z,22.58
2019-06-27T13:42:03.540Z,23.12
2019-06-27T13:44:34.707Z,22.86
2019-06-27T13:47:05.261Z,23.21
2019-06-27T13:49:36.929Z,23.48
2019-06-27T13:52:07.088Z,23.10
2019-06-27T13:54:39.794Z,23.05
2019-06-27T13:57:09.951Z,23.31
2019-06-27T13:59:41.542Z,23.58
2019-06-27T14:02:13.002Z,23.33
2019-06-27T14:04:56.629Z,23.50
2019-06-27T14:07:16.796Z,23.79
2019-06-27T14:09:53.574Z,24.35
2019-06-27T14:12:19.209Z,24.01
2019-06-27T14:14:59.424Z,22.90
2019-06-27T14:17:21.112Z,22.78
2019-06-27T14:19:51.742Z,22.94
2019-06-27T14:22:32.861Z,23.15
2019-06-27T14:24:54.267Z,23.34
2019-06-27T14:27:25.686Z,23.15
2019-06-27T14:29:56.835Z,22.81
2019-06-27T14:32:26.917Z,22.64
2019-06-27T14:35:14.135Z,22.75
2019-06-27T14:37:30.202Z,22.73
2019-06-27T14:40:01.475Z,22.77
2019-06-27T14:42:31.632Z,23.08
2019-06-27T14:45:01.860Z,23.11
2019-06-27T14:47:32.704Z,22.99
2019-06-27T14:50:03.837Z,23.09
2019-06-27T14:52:35.051Z,23.57
2019-06-27T14:55:05.908Z,23.91
2019-06-27T14:57:36.035Z,23.82
2019-06-27T15:00:07.034Z,23.18
2019-06-27T15:02:37.141Z,23.05
2019-06-27T15:05:11.586Z,22.90
2019-06-27T15:07:42.151Z,22.82
2019-06-27T15:10:12.812Z,23.17
2019-06-27T15:12:56.460Z,23.57
2019-06-27T15:15:15.376Z,23.62
2019-06-27T15:17:45.457Z,23.64
2019-06-27T15:20:17.013Z,23.05
2019-06-27T15:22:47.579Z,22.99
2019-06-27T15:25:18.740Z,22.98
2019-06-27T15:27:49.869Z,22.67
2019-06-27T15:30:21.362Z,23.05
2019-06-27T15:32:52.539Z,23.23
2019-06-27T15:35:25.237Z,22.77
2019-06-27T15:37:55.379Z,23.05
2019-06-27T15:40:26.341Z,22.45
2019-06-27T15:42:56.889Z,21.80
2019-06-27T15:45:27.105Z,21.40
2019-06-27T15:47:57.445Z,21.93
2019-06-27T15:50:28.825Z,22.04
2019-06-27T15:52:59.206Z,22.46
2019-06-27T15:55:29.369Z,22.25
2019-06-27T15:57:59.518Z,22.08
2019-06-27T16:00:30.022Z,21.60
2019-06-27T16:03:00.599Z,21.57
2019-06-27T16:05:33.076Z,21.45
2019-06-27T16:08:03.482Z,21.79
2019-06-27T16:10:36.334Z,22.54
2019-06-27T16:13:06.335Z,22.78
2019-06-27T16:15:36.846Z,23.00
2019-06-27T16:18:07.675Z,23.37
2019-06-27T16:20:39.340Z,23.86
2019-06-27T16:23:11.714Z,23.94
2019-06-27T16:25:42.319Z,23.91
2019-06-27T16:28:13.279Z,23.95
2019-06-27T16:30:43.914Z,24.31
2019-06-27T16:33:15.250Z,24.26
2019-06-27T16:35:46.461Z,23.99
2019-06-27T16:38:16.965Z,23.93
2019-06-27T16:40:49.429Z,23.99
2019-06-27T16:43:19.818Z,23.46
2019-06-27T16:45:50.781Z,23.09
2019-06-27T16:48:28.835Z,22.77
2019-06-27T16:50:59.114Z,22.83
2019-06-27T16:53:29.550Z,22.71
2019-06-27T16:56:00.285Z,23.01
2019-06-27T16:58:30.768Z,23.15
2019-06-27T17:01:03.286Z,23.39
2019-06-27T17:03:35.594Z,23.47
2019-06-27T17:06:05.720Z,23.43
2019-06-27T17:08:36.040Z,23.22
2019-06-27T17:11:12.224Z,23.43
2019-06-27T17:13:42.670Z,23.54
2019-06-27T17:16:14.080Z,23.09
2019-06-27T17:18:44.228Z,22.80
2019-06-27T17:21:14.379Z,21.96
2019-06-27T17:23:44.577Z,21.68
2019-06-27T17:26:14.881Z,21.77
2019-06-27T17:28:45.300Z,21.86
2019-06-27T17:31:15.743Z,22.22
2019-06-27T17:33:46.905Z,22.22
2019-06-27T17:36:17.404Z,22.14
2019-06-27T17:38:47.553Z,21.82
2019-06-27T17:41:18.997Z,21.78
2019-06-27T17:43:49.902Z,21.91
2019-06-27T17:46:20.243Z,21.73
2019-06-27T17:48:50.407Z,21.62
2019-06-27T17:51:22.445Z,21.08
2019-06-27T17:53:53.002Z,20.53
2019-06-27T17:56:24.023Z,20.44
2019-06-27T17:58:54.190Z,20.43
2019-06-27T18:01:24.501Z,20.01
2019-06-27T18:03:56.067Z,19.77
2019-06-27T18:06:26.737Z,19.23
2019-06-27T18:08:57.345Z,18.90
2019-06-27T18:11:27.553Z,18.78
2019-06-27T18:13:57.663Z,19.02
2019-06-27T18:16:27.777Z,18.99
2019-06-27T18:19:00.953Z,19.24
2019-06-27T18:21:31.608Z,19.45
2019-06-27T18:24:01.765Z,19.16
2019-06-27T18:26:32.393Z,18.87
2019-06-27T18:29:02.920Z,18.75
2019-06-27T18:31:38.636Z,18.68
2019-06-27T18:34:09.643Z,18.79
2019-06-27T18:36:39.771Z,19.06
2019-06-27T18:39:10.447Z,19.16
2019-06-27T18:41:42.944Z,19.07
2019-06-27T18:44:13.061Z,19.22
2019-06-27T18:46:43.567Z,19.15
2019-06-27T18:49:18.062Z,18.87
2019-06-27T18:51:49.876Z,18.45
2019-06-27T18:54:25.112Z,18.02
2019-06-27T18:56:55.332Z,17.69
2019-06-27T18:59:25.637Z,17.51
2019-06-27T19:01:56.318Z,17.36
2019-06-27T19:04:27.426Z,17.21
2019-06-27T19:06:57.547Z,17.11
2019-06-27T19:09:27.725Z,17.15
2019-06-27T19:11:57.898Z,17.15
2019-06-27T19:14:31.609Z,17.08
2019-06-27T19:17:09.706Z,17.00
2019-06-27T19:19:41.744Z,16.92
2019-06-27T19:22:23.837Z,16.87
2019-06-27T19:25:05.624Z,16.79
2019-06-27T19:27:38.444Z,16.75
2019-06-27T19:30:08.737Z,16.70
2019-06-27T19:32:39.309Z,16.69
2019-06-27T19:35:09.684Z,16.66
2019-06-27T19:37:41.132Z,16.63
2019-06-27T19:40:12.103Z,16.44
2019-06-27T19:42:42.732Z,16.39
2019-06-27T19:45:13.219Z,16.33
2019-06-27T19:47:44.200Z,16.24
2019-06-27T19:50:15.933Z,16.18
2019-06-27T19:52:46.191Z,16.13
2019-06-27T19:55:18.055Z,16.19
2019-06-27T19:57:48.860Z,16.20
2019-06-27T20:00:20.389Z,16.19
2019-06-27T20:02:51.109Z,16.17
2019-06-27T20:05:22.232Z,16.12
2019-06-27T20:07:53.184Z,16.05
2019-06-27T20:10:25.086Z,16.02
2019-06-27T20:12:55.568Z,16.00
2019-06-27T20:15:26.026Z,15.98
2019-06-27T20:17:56.819Z,15.99
2019-06-27T20:20:27.288Z,15.93
2019-06-27T20:22:57.703Z,15.93
2019-06-27T20:25:28.691Z,15.90
2019-06-27T20:28:00.053Z,15.90
2019-06-27T20:30:30.144Z,15.89
2019-06-27T20:33:00.294Z,15.85
2019-06-27T20:35:30.361Z,15.78
2019-06-27T20:38:00.780Z,15.76
2019-06-27T20:40:30.893Z,15.64
2019-06-27T20:43:01.163Z,15.61
2019-06-27T20:45:31.305Z,15.55
2019-06-27T20:48:01.551Z,15.53
2019-06-27T20:50:33.004Z,15.47
2019-06-27T20:53:03.113Z,15.40
2019-06-27T20:55:34.353Z,15.36
2019-06-27T20:58:04.522Z,15.31
2019-06-27T21:00:42.013Z,15.28
2019-06-27T21:03:12.283Z,15.26
2019-06-27T21:05:42.768Z,15.23
2019-06-27T21:08:12.847Z,15.24
2019-06-27T21:10:43.127Z,15.22
2019-06-27T21:13:13.171Z,15.24
2019-06-27T21:15:43.214Z,15.21
2019-06-27T21:18:13.773Z,15.18
2019-06-27T21:20:43.920Z,15.09
2019-06-27T21:23:14.119Z,15.03
2019-06-27T21:25:44.365Z,14.93
2019-06-27T21:28:14.649Z,14.84
2019-06-27T21:30:45.729Z,14.76
2019-06-27T21:33:16.030Z,14.74
2019-06-27T21:35:47.692Z,14.72
2019-06-27T21:38:17.711Z,14.72
2019-06-27T21:40:51.321Z,14.66
2019-06-27T21:43:21.465Z,14.69
2019-06-27T21:45:52.336Z,14.65
2019-06-27T21:48:22.551Z,14.63
2019-06-27T21:50:52.605Z,14.62
2019-06-27T21:53:22.903Z,14.62
2019-06-27T21:55:55.742Z,14.59
2019-06-27T21:58:25.802Z,14.53
2019-06-27T22:00:55.979Z,14.53
2019-06-27T22:03:27.460Z,14.48
2019-06-27T22:05:57.846Z,14.46
2019-06-27T22:08:28.151Z,14.34
2019-06-27T22:10:58.217Z,14.34
2019-06-27T22:13:28.524Z,14.29
2019-06-27T22:15:59.402Z,14.31
2019-06-27T22:18:30.655Z,14.31
2019-06-27T22:21:01.041Z,14.29
2019-06-27T22:23:31.277Z,14.26
2019-06-27T22:26:01.390Z,14.26
2019-06-27T22:28:31.646Z,14.17
2019-06-27T22:31:02.611Z,14.17
2019-06-27T22:33:33.782Z,14.21
2019-06-27T22:36:03.907Z,14.14
2019-06-27T22:38:51.801Z,14.11
2019-06-27T22:41:40.379Z,14.13
2019-06-27T22:44:28.352Z,14.13
2019-06-27T22:47:16.353Z,14.08
2019-06-27T22:49:45.551Z,14.00
2019-06-27T22:52:37.343Z,14.00
2019-06-27T22:55:10.124Z,13.96
2019-06-27T22:57:40.585Z,13.99
2019-06-27T23:00:11.704Z,13.96
2019-06-27T23:02:41.973Z,13.96
2019-06-27T23:05:12.583Z,13.97
2019-06-27T23:07:43.776Z,13.83
2019-06-27T23:10:14.254Z,13.81
2019-06-27T23:12:44.331Z,13.87
2019-06-27T23:15:14.929Z,13.87
2019-06-27T23:17:45.022Z,13.91
2019-06-27T23:20:15.209Z,13.91
2019-06-27T23:22:45.264Z,13.91
2019-06-27T23:25:16.139Z,13.88
2019-06-27T23:27:46.521Z,13.82
2019-06-27T23:30:17.221Z,13.82
2019-06-27T23:32:49.059Z,13.70
2019-06-27T23:35:19.616Z,13.61
2019-06-27T23:37:50.728Z,13.61
2019-06-27T23:40:21.052Z,13.54
2019-06-27T23:42:51.237Z,13.54
2019-06-27T23:45:21.375Z,13.52
2019-06-27T23:47:52.854Z,13.51
2019-06-27T23:50:23.853Z,13.46
2019-06-27T23:52:54.830Z,13.46
2019-06-27T23:55:25.002Z,13.46
2019-06-27T23:57:55.298Z,13.42
